sensor_id;sensor_type;location;lat;lon;timestamp;P1;durP1;ratioP1;P2;durP2;ratioP2
67721;SDS011;58309;45.292;11.820;2023-07-20T00:01:25;18.25;;;9.43;;
67721;SDS011;58309;45.292;11.820;2023-07-20T00:03:51;18.90;;;9.82;;
67721;SDS011;58309;45.292;11.820;2023-07-20T00:06:22;16.58;;;8.82;;
67721;SDS011;58309;45.292;11.820;2023-07-20T00:08:49;13.02;;;9.15;;
67721;SDS011;58309;45.292;11.820;2023-07-20T00:11:15;13.65;;;9.38;;
67721;SDS011;58309;45.292;11.820;2023-07-20T00:13:41;13.80;;;9.00;;
67721;SDS011;58309;45.292;11.820;2023-07-20T00:16:06;18.17;;;9.23;;
67721;SDS011;58309;45.292;11.820;2023-07-20T00:18:32;16.50;;;9.40;;
67721;SDS011;58309;45.292;11.820;2023-07-20T00:20:57;15.27;;;9.15;;
67721;SDS011;58309;45.292;11.820;2023-07-20T00:23:24;17.45;;;9.45;;
67721;SDS011;58309;45.292;11.820;2023-07-20T00:25:50;14.95;;;9.63;;
67721;SDS011;58309;45.292;11.820;2023-07-20T00:28:16;14.48;;;8.68;;
67721;SDS011;58309;45.292;11.820;2023-07-20T00:30:41;18.73;;;11.80;;
67721;SDS011;58309;45.292;11.820;2023-07-20T00:33:10;16.38;;;10.68;;
67721;SDS011;58309;45.292;11.820;2023-07-20T00:38:03;13.20;;;10.13;;
67721;SDS011;58309;45.292;11.820;2023-07-20T00:40:34;17.67;;;10.45;;
67721;SDS011;58309;45.292;11.820;2023-07-20T00:43:01;16.20;;;10.00;;
67721;SDS011;58309;45.292;11.820;2023-07-20T00:45:26;17.42;;;9.65;;
67721;SDS011;58309;45.292;11.820;2023-07-20T00:47:52;14.13;;;10.07;;
67721;SDS011;58309;45.292;11.820;2023-07-20T00:50:18;16.80;;;10.13;;
67721;SDS011;58309;45.292;11.820;2023-07-20T00:52:44;15.32;;;9.73;;
67721;SDS011;58309;45.292;11.820;2023-07-20T00:55:09;13.82;;;9.27;;
67721;SDS011;58309;45.292;11.820;2023-07-20T00:57:35;14.77;;;9.38;;
67721;SDS011;58309;45.292;11.820;2023-07-20T01:00:01;19.63;;;10.10;;
67721;SDS011;58309;45.292;11.820;2023-07-20T01:02:27;14.73;;;10.43;;
67721;SDS011;58309;45.292;11.820;2023-07-20T01:04:52;19.15;;;9.88;;
67721;SDS011;58309;45.292;11.820;2023-07-20T01:09:59;15.25;;;10.43;;
67721;SDS011;58309;45.292;11.820;2023-07-20T01:12:30;14.35;;;9.63;;
67721;SDS011;58309;45.292;11.820;2023-07-20T01:14:57;16.20;;;9.10;;
67721;SDS011;58309;45.292;11.820;2023-07-20T01:17:22;12.23;;;8.65;;
67721;SDS011;58309;45.292;11.820;2023-07-20T01:19:49;14.85;;;8.80;;
67721;SDS011;58309;45.292;11.820;2023-07-20T01:28:07;13.93;;;8.52;;
67721;SDS011;58309;45.292;11.820;2023-07-20T01:33:24;16.17;;;10.07;;
67721;SDS011;58309;45.292;11.820;2023-07-20T01:35:57;16.38;;;9.55;;
67721;SDS011;58309;45.292;11.820;2023-07-20T01:38:25;14.27;;;9.88;;
67721;SDS011;58309;45.292;11.820;2023-07-20T01:40:51;17.83;;;9.93;;
67721;SDS011;58309;45.292;11.820;2023-07-20T01:43:17;16.08;;;11.00;;
67721;SDS011;58309;45.292;11.820;2023-07-20T01:45:43;20.35;;;9.52;;
67721;SDS011;58309;45.292;11.820;2023-07-20T01:48:09;16.90;;;8.60;;
67721;SDS011;58309;45.292;11.820;2023-07-20T01:50:35;14.38;;;8.35;;
67721;SDS011;58309;45.292;11.820;2023-07-20T01:53:01;14.60;;;8.05;;
67721;SDS011;58309;45.292;11.820;2023-07-20T01:55:26;13.13;;;8.15;;
67721;SDS011;58309;45.292;11.820;2023-07-20T01:57:52;13.45;;;8.52;;
67721;SDS011;58309;45.292;11.820;2023-07-20T02:00:18;18.65;;;8.98;;
67721;SDS011;58309;45.292;11.820;2023-07-20T02:02:46;14.13;;;9.88;;
67721;SDS011;58309;45.292;11.820;2023-07-20T02:05:11;15.52;;;9.18;;
67721;SDS011;58309;45.292;11.820;2023-07-20T02:07:37;17.95;;;8.95;;
67721;SDS011;58309;45.292;11.820;2023-07-20T02:10:02;15.85;;;10.40;;
67721;SDS011;58309;45.292;11.820;2023-07-20T02:12:28;18.80;;;9.65;;
67721;SDS011;58309;45.292;11.820;2023-07-20T02:14:53;20.52;;;10.27;;
67721;SDS011;58309;45.292;11.820;2023-07-20T02:17:19;16.52;;;10.70;;
67721;SDS011;58309;45.292;11.820;2023-07-20T02:19:44;17.30;;;10.20;;
67721;SDS011;58309;45.292;11.820;2023-07-20T02:22:10;14.65;;;8.98;;
67721;SDS011;58309;45.292;11.820;2023-07-20T02:24:35;16.75;;;10.63;;
67721;SDS011;58309;45.292;11.820;2023-07-20T02:27:01;16.88;;;10.30;;
67721;SDS011;58309;45.292;11.820;2023-07-20T02:29:26;14.68;;;9.77;;
67721;SDS011;58309;45.292;11.820;2023-07-20T02:31:52;16.70;;;10.80;;
67721;SDS011;58309;45.292;11.820;2023-07-20T02:34:18;16.85;;;10.65;;
67721;SDS011;58309;45.292;11.820;2023-07-20T02:36:43;16.65;;;11.23;;
67721;SDS011;58309;45.292;11.820;2023-07-20T02:39:09;15.57;;;11.43;;
67721;SDS011;58309;45.292;11.820;2023-07-20T02:41:35;19.90;;;11.48;;
67721;SDS011;58309;45.292;11.820;2023-07-20T02:44:00;15.38;;;10.73;;
67721;SDS011;58309;45.292;11.820;2023-07-20T02:46:26;13.70;;;10.23;;
67721;SDS011;58309;45.292;11.820;2023-07-20T02:48:55;18.80;;;10.70;;
67721;SDS011;58309;45.292;11.820;2023-07-20T02:51:20;19.75;;;10.70;;
67721;SDS011;58309;45.292;11.820;2023-07-20T02:53:46;17.17;;;11.43;;
67721;SDS011;58309;45.292;11.820;2023-07-20T02:56:11;17.95;;;11.52;;
67721;SDS011;58309;45.292;11.820;2023-07-20T02:58:39;17.58;;;11.00;;
67721;SDS011;58309;45.292;11.820;2023-07-20T03:01:08;21.20;;;11.98;;
67721;SDS011;58309;45.292;11.820;2023-07-20T03:03:35;14.40;;;10.23;;
67721;SDS011;58309;45.292;11.820;2023-07-20T03:06:04;21.53;;;10.50;;
67721;SDS011;58309;45.292;11.820;2023-07-20T03:08:29;15.00;;;9.65;;
67721;SDS011;58309;45.292;11.820;2023-07-20T03:10:55;16.05;;;9.48;;
67721;SDS011;58309;45.292;11.820;2023-07-20T03:13:20;15.07;;;9.80;;
67721;SDS011;58309;45.292;11.820;2023-07-20T03:15:46;12.70;;;9.10;;
67721;SDS011;58309;45.292;11.820;2023-07-20T03:18:11;17.75;;;9.63;;
67721;SDS011;58309;45.292;11.820;2023-07-20T03:20:37;14.02;;;9.10;;
67721;SDS011;58309;45.292;11.820;2023-07-20T03:23:03;16.15;;;9.65;;
67721;SDS011;58309;45.292;11.820;2023-07-20T03:25:28;14.32;;;10.15;;
67721;SDS011;58309;45.292;11.820;2023-07-20T03:27:54;16.23;;;10.82;;
67721;SDS011;58309;45.292;11.820;2023-07-20T03:30:19;15.18;;;10.88;;
67721;SDS011;58309;45.292;11.820;2023-07-20T03:32:45;13.32;;;10.00;;
67721;SDS011;58309;45.292;11.820;2023-07-20T03:35:10;18.48;;;10.90;;
67721;SDS011;58309;45.292;11.820;2023-07-20T03:37:36;18.17;;;11.63;;
67721;SDS011;58309;45.292;11.820;2023-07-20T03:40:02;22.17;;;10.68;;
67721;SDS011;58309;45.292;11.820;2023-07-20T03:42:28;14.25;;;10.50;;
67721;SDS011;58309;45.292;11.820;2023-07-20T03:44:53;18.58;;;10.95;;
67721;SDS011;58309;45.292;11.820;2023-07-20T03:47:19;20.08;;;11.57;;
67721;SDS011;58309;45.292;11.820;2023-07-20T03:49:44;18.95;;;12.10;;
67721;SDS011;58309;45.292;11.820;2023-07-20T03:52:09;23.55;;;12.18;;
67721;SDS011;58309;45.292;11.820;2023-07-20T03:54:35;23.35;;;13.30;;
67721;SDS011;58309;45.292;11.820;2023-07-20T03:57:00;21.08;;;13.57;;
67721;SDS011;58309;45.292;11.820;2023-07-20T03:59:26;24.05;;;13.57;;
67721;SDS011;58309;45.292;11.820;2023-07-20T04:01:51;26.55;;;12.73;;
67721;SDS011;58309;45.292;11.820;2023-07-20T04:04:17;25.95;;;13.77;;
67721;SDS011;58309;45.292;11.820;2023-07-20T04:06:42;28.50;;;14.40;;
67721;SDS011;58309;45.292;11.820;2023-07-20T04:09:11;27.05;;;13.95;;
67721;SDS011;58309;45.292;11.820;2023-07-20T04:11:37;20.92;;;13.52;;
67721;SDS011;58309;45.292;11.820;2023-07-20T04:14:03;20.27;;;11.95;;
67721;SDS011;58309;45.292;11.820;2023-07-20T04:16:29;23.65;;;12.35;;
67721;SDS011;58309;45.292;11.820;2023-07-20T04:18:55;18.38;;;11.57;;
67721;SDS011;58309;45.292;11.820;2023-07-20T04:21:21;19.35;;;11.63;;
67721;SDS011;58309;45.292;11.820;2023-07-20T04:23:47;18.63;;;11.18;;
67721;SDS011;58309;45.292;11.820;2023-07-20T04:26:12;16.00;;;11.30;;
67721;SDS011;58309;45.292;11.820;2023-07-20T04:28:39;15.30;;;10.88;;
67721;SDS011;58309;45.292;11.820;2023-07-20T04:31:11;16.42;;;10.23;;
67721;SDS011;58309;45.292;11.820;2023-07-20T04:33:37;16.58;;;9.73;;
67721;SDS011;58309;45.292;11.820;2023-07-20T04:36:03;19.45;;;10.80;;
67721;SDS011;58309;45.292;11.820;2023-07-20T04:38:29;18.85;;;9.82;;
67721;SDS011;58309;45.292;11.820;2023-07-20T04:40:55;15.07;;;9.98;;
67721;SDS011;58309;45.292;11.820;2023-07-20T04:43:20;13.90;;;9.93;;
67721;SDS011;58309;45.292;11.820;2023-07-20T04:45:46;16.10;;;10.07;;
67721;SDS011;58309;45.292;11.820;2023-07-20T04:48:12;18.08;;;9.70;;
67721;SDS011;58309;45.292;11.820;2023-07-20T04:50:42;15.98;;;10.38;;
67721;SDS011;58309;45.292;11.820;2023-07-20T04:53:09;17.48;;;9.85;;
67721;SDS011;58309;45.292;11.820;2023-07-20T04:55:36;16.08;;;10.57;;
67721;SDS011;58309;45.292;11.820;2023-07-20T04:58:02;18.30;;;10.45;;
67721;SDS011;58309;45.292;11.820;2023-07-20T05:00:29;13.60;;;9.43;;
67721;SDS011;58309;45.292;11.820;2023-07-20T05:02:55;18.13;;;10.10;;
67721;SDS011;58309;45.292;11.820;2023-07-20T05:05:21;13.68;;;10.20;;
67721;SDS011;58309;45.292;11.820;2023-07-20T05:07:47;15.95;;;10.30;;
67721;SDS011;58309;45.292;11.820;2023-07-20T05:10:12;15.65;;;9.95;;
67721;SDS011;58309;45.292;11.820;2023-07-20T05:12:38;11.93;;;9.43;;
67721;SDS011;58309;45.292;11.820;2023-07-20T05:15:04;15.18;;;8.98;;
67721;SDS011;58309;45.292;11.820;2023-07-20T05:17:29;16.08;;;10.32;;
67721;SDS011;58309;45.292;11.820;2023-07-20T05:19:55;13.18;;;8.60;;
67721;SDS011;58309;45.292;11.820;2023-07-20T05:22:20;16.75;;;8.48;;
67721;SDS011;58309;45.292;11.820;2023-07-20T05:24:46;11.70;;;7.95;;
67721;SDS011;58309;45.292;11.820;2023-07-20T05:27:11;15.30;;;8.75;;
67721;SDS011;58309;45.292;11.820;2023-07-20T05:29:37;11.93;;;8.50;;
67721;SDS011;58309;45.292;11.820;2023-07-20T05:32:02;11.80;;;8.15;;
67721;SDS011;58309;45.292;11.820;2023-07-20T05:34:28;17.80;;;9.43;;
67721;SDS011;58309;45.292;11.820;2023-07-20T05:36:54;13.20;;;9.50;;
67721;SDS011;58309;45.292;11.820;2023-07-20T05:39:20;11.80;;;7.80;;
67721;SDS011;58309;45.292;11.820;2023-07-20T05:41:45;12.70;;;7.85;;
67721;SDS011;58309;45.292;11.820;2023-07-20T05:44:11;9.93;;;7.28;;
67721;SDS011;58309;45.292;11.820;2023-07-20T05:46:36;13.88;;;7.72;;
67721;SDS011;58309;45.292;11.820;2023-07-20T05:49:01;12.20;;;7.70;;
67721;SDS011;58309;45.292;11.820;2023-07-20T05:51:27;11.32;;;7.28;;
67721;SDS011;58309;45.292;11.820;2023-07-20T05:53:53;9.10;;;7.00;;
67721;SDS011;58309;45.292;11.820;2023-07-20T05:56:18;11.75;;;7.30;;
67721;SDS011;58309;45.292;11.820;2023-07-20T05:58:44;11.98;;;6.85;;
67721;SDS011;58309;45.292;11.820;2023-07-20T06:01:09;12.82;;;6.93;;
67721;SDS011;58309;45.292;11.820;2023-07-20T06:03:35;14.95;;;8.18;;
67721;SDS011;58309;45.292;11.820;2023-07-20T06:06:00;13.85;;;7.63;;
67721;SDS011;58309;45.292;11.820;2023-07-20T06:08:30;9.50;;;7.07;;
67721;SDS011;58309;45.292;11.820;2023-07-20T06:10:56;12.35;;;7.57;;
67721;SDS011;58309;45.292;11.820;2023-07-20T06:13:22;10.48;;;6.85;;
67721;SDS011;58309;45.292;11.820;2023-07-20T06:15:47;12.02;;;6.97;;
67721;SDS011;58309;45.292;11.820;2023-07-20T06:18:13;15.85;;;6.68;;
67721;SDS011;58309;45.292;11.820;2023-07-20T06:20:38;8.50;;;5.97;;
67721;SDS011;58309;45.292;11.820;2023-07-20T06:23:04;11.40;;;6.80;;
67721;SDS011;58309;45.292;11.820;2023-07-20T06:25:30;8.65;;;6.47;;
67721;SDS011;58309;45.292;11.820;2023-07-20T06:27:56;8.05;;;6.18;;
67721;SDS011;58309;45.292;11.820;2023-07-20T06:30:21;7.57;;;5.93;;
67721;SDS011;58309;45.292;11.820;2023-07-20T06:32:47;11.65;;;6.30;;
67721;SDS011;58309;45.292;11.820;2023-07-20T06:35:13;9.02;;;5.95;;
67721;SDS011;58309;45.292;11.820;2023-07-20T06:37:39;10.85;;;5.97;;
67721;SDS011;58309;45.292;11.820;2023-07-20T06:40:05;8.50;;;6.28;;
67721;SDS011;58309;45.292;11.820;2023-07-20T06:42:31;9.57;;;6.20;;
67721;SDS011;58309;45.292;11.820;2023-07-20T06:44:57;12.65;;;6.40;;
67721;SDS011;58309;45.292;11.820;2023-07-20T06:47:23;14.80;;;7.60;;
67721;SDS011;58309;45.292;11.820;2023-07-20T06:49:48;9.63;;;6.65;;
67721;SDS011;58309;45.292;11.820;2023-07-20T06:52:13;11.35;;;7.00;;
67721;SDS011;58309;45.292;11.820;2023-07-20T06:54:39;13.73;;;7.05;;
67721;SDS011;58309;45.292;11.820;2023-07-20T06:57:05;11.38;;;7.40;;
67721;SDS011;58309;45.292;11.820;2023-07-20T06:59:30;12.75;;;6.80;;
67721;SDS011;58309;45.292;11.820;2023-07-20T07:01:56;10.43;;;6.32;;
67721;SDS011;58309;45.292;11.820;2023-07-20T07:04:21;11.50;;;6.55;;
67721;SDS011;58309;45.292;11.820;2023-07-20T07:06:47;9.82;;;6.05;;
67721;SDS011;58309;45.292;11.820;2023-07-20T07:09:13;8.55;;;6.03;;
67721;SDS011;58309;45.292;11.820;2023-07-20T07:11:39;10.32;;;6.50;;
67721;SDS011;58309;45.292;11.820;2023-07-20T07:14:04;9.00;;;6.13;;
67721;SDS011;58309;45.292;11.820;2023-07-20T07:16:30;8.75;;;6.03;;
67721;SDS011;58309;45.292;11.820;2023-07-20T07:18:55;9.60;;;6.20;;
67721;SDS011;58309;45.292;11.820;2023-07-20T07:21:20;9.00;;;5.68;;
67721;SDS011;58309;45.292;11.820;2023-07-20T07:23:46;7.93;;;5.50;;
67721;SDS011;58309;45.292;11.820;2023-07-20T07:26:12;11.60;;;5.65;;
67721;SDS011;58309;45.292;11.820;2023-07-20T07:28:38;7.00;;;4.70;;
67721;SDS011;58309;45.292;11.820;2023-07-20T07:31:06;9.25;;;4.88;;
67721;SDS011;58309;45.292;11.820;2023-07-20T07:33:32;8.88;;;4.65;;
67721;SDS011;58309;45.292;11.820;2023-07-20T07:35:58;9.75;;;5.20;;
67721;SDS011;58309;45.292;11.820;2023-07-20T07:38:23;9.15;;;5.85;;
67721;SDS011;58309;45.292;11.820;2023-07-20T07:40:49;11.55;;;4.88;;
67721;SDS011;58309;45.292;11.820;2023-07-20T07:43:14;6.22;;;5.03;;
67721;SDS011;58309;45.292;11.820;2023-07-20T07:45:40;8.85;;;5.00;;
67721;SDS011;58309;45.292;11.820;2023-07-20T07:48:06;6.47;;;4.25;;
67721;SDS011;58309;45.292;11.820;2023-07-20T07:50:32;8.30;;;5.05;;
67721;SDS011;58309;45.292;11.820;2023-07-20T07:52:59;5.43;;;4.13;;
67721;SDS011;58309;45.292;11.820;2023-07-20T07:55:25;5.05;;;4.32;;
67721;SDS011;58309;45.292;11.820;2023-07-20T07:57:53;8.20;;;4.68;;
67721;SDS011;58309;45.292;11.820;2023-07-20T08:00:20;6.72;;;5.38;;
67721;SDS011;58309;45.292;11.820;2023-07-20T08:02:46;9.65;;;4.72;;
67721;SDS011;58309;45.292;11.820;2023-07-20T08:05:13;6.25;;;4.18;;
67721;SDS011;58309;45.292;11.820;2023-07-20T08:07:39;6.38;;;4.70;;
67721;SDS011;58309;45.292;11.820;2023-07-20T08:10:04;7.80;;;5.15;;
67721;SDS011;58309;45.292;11.820;2023-07-20T08:12:30;7.25;;;4.90;;
67721;SDS011;58309;45.292;11.820;2023-07-20T08:14:56;6.18;;;4.53;;
67721;SDS011;58309;45.292;11.820;2023-07-20T08:17:21;10.73;;;4.65;;
67721;SDS011;58309;45.292;11.820;2023-07-20T08:19:47;6.88;;;4.07;;
67721;SDS011;58309;45.292;11.820;2023-07-20T08:22:12;9.70;;;4.20;;
67721;SDS011;58309;45.292;11.820;2023-07-20T08:24:41;6.90;;;4.20;;
67721;SDS011;58309;45.292;11.820;2023-07-20T08:27:07;8.20;;;4.22;;
67721;SDS011;58309;45.292;11.820;2023-07-20T08:29:33;5.97;;;4.10;;
67721;SDS011;58309;45.292;11.820;2023-07-20T08:31:59;7.30;;;4.47;;
67721;SDS011;58309;45.292;11.820;2023-07-20T08:34:25;8.00;;;4.70;;
67721;SDS011;58309;45.292;11.820;2023-07-20T08:36:50;8.57;;;4.63;;
67721;SDS011;58309;45.292;11.820;2023-07-20T08:39:16;7.57;;;4.30;;
67721;SDS011;58309;45.292;11.820;2023-07-20T08:41:46;6.90;;;4.40;;
67721;SDS011;58309;45.292;11.820;2023-07-20T08:44:11;7.30;;;4.80;;
67721;SDS011;58309;45.292;11.820;2023-07-20T08:46:38;5.50;;;4.00;;
67721;SDS011;58309;45.292;11.820;2023-07-20T08:49:04;7.03;;;4.38;;
67721;SDS011;58309;45.292;11.820;2023-07-20T08:51:30;8.10;;;4.13;;
67721;SDS011;58309;45.292;11.820;2023-07-20T08:53:58;9.45;;;4.82;;
67721;SDS011;58309;45.292;11.820;2023-07-20T08:56:24;8.15;;;4.53;;
67721;SDS011;58309;45.292;11.820;2023-07-20T08:58:54;7.10;;;4.35;;
67721;SDS011;58309;45.292;11.820;2023-07-20T09:01:21;7.22;;;4.75;;
67721;SDS011;58309;45.292;11.820;2023-07-20T09:03:47;7.05;;;4.47;;
67721;SDS011;58309;45.292;11.820;2023-07-20T09:06:14;7.20;;;3.97;;
67721;SDS011;58309;45.292;11.820;2023-07-20T09:08:40;6.10;;;4.28;;
67721;SDS011;58309;45.292;11.820;2023-07-20T09:11:07;8.65;;;4.30;;
67721;SDS011;58309;45.292;11.820;2023-07-20T09:13:33;6.60;;;4.45;;
67721;SDS011;58309;45.292;11.820;2023-07-20T09:15:59;5.80;;;3.60;;
67721;SDS011;58309;45.292;11.820;2023-07-20T09:21:03;4.05;;;2.80;;
67721;SDS011;58309;45.292;11.820;2023-07-20T09:23:37;4.97;;;3.40;;
67721;SDS011;58309;45.292;11.820;2023-07-20T09:26:12;5.10;;;3.00;;
67721;SDS011;58309;45.292;11.820;2023-07-20T09:28:47;5.25;;;3.38;;
67721;SDS011;58309;45.292;11.820;2023-07-20T09:31:19;5.57;;;3.40;;
67721;SDS011;58309;45.292;11.820;2023-07-20T09:33:45;6.22;;;3.40;;
67721;SDS011;58309;45.292;11.820;2023-07-20T09:36:12;7.18;;;3.20;;
67721;SDS011;58309;45.292;11.820;2023-07-20T09:38:38;8.27;;;3.28;;
67721;SDS011;58309;45.292;11.820;2023-07-20T09:41:07;5.85;;;3.00;;
67721;SDS011;58309;45.292;11.820;2023-07-20T09:43:36;5.30;;;3.30;;
67721;SDS011;58309;45.292;11.820;2023-07-20T09:46:02;6.38;;;3.40;;
67721;SDS011;58309;45.292;11.820;2023-07-20T09:48:27;5.70;;;3.50;;
67721;SDS011;58309;45.292;11.820;2023-07-20T09:50:53;5.60;;;3.33;;
67721;SDS011;58309;45.292;11.820;2023-07-20T09:53:19;6.25;;;3.40;;
67721;SDS011;58309;45.292;11.820;2023-07-20T09:55:46;6.85;;;3.50;;
67721;SDS011;58309;45.292;11.820;2023-07-20T09:58:12;5.45;;;3.38;;
67721;SDS011;58309;45.292;11.820;2023-07-20T10:00:39;4.55;;;3.60;;
67721;SDS011;58309;45.292;11.820;2023-07-20T10:03:08;3.85;;;3.10;;
67721;SDS011;58309;45.292;11.820;2023-07-20T10:05:35;4.57;;;3.28;;
67721;SDS011;58309;45.292;11.820;2023-07-20T10:08:04;3.50;;;2.88;;
67721;SDS011;58309;45.292;11.820;2023-07-20T10:10:33;3.85;;;2.85;;
67721;SDS011;58309;45.292;11.820;2023-07-20T10:13:00;6.47;;;2.97;;
67721;SDS011;58309;45.292;11.820;2023-07-20T10:15:28;7.60;;;2.90;;
67721;SDS011;58309;45.292;11.820;2023-07-20T10:18:03;5.72;;;2.97;;
67721;SDS011;58309;45.292;11.820;2023-07-20T10:20:31;3.40;;;3.10;;
67721;SDS011;58309;45.292;11.820;2023-07-20T10:22:58;4.55;;;2.70;;
67721;SDS011;58309;45.292;11.820;2023-07-20T10:25:24;3.17;;;2.88;;
67721;SDS011;58309;45.292;11.820;2023-07-20T10:27:50;5.53;;;3.03;;
67721;SDS011;58309;45.292;11.820;2023-07-20T10:30:16;7.20;;;3.08;;
67721;SDS011;58309;45.292;11.820;2023-07-20T10:32:43;3.35;;;2.90;;
67721;SDS011;58309;45.292;11.820;2023-07-20T10:35:16;6.03;;;2.80;;
67721;SDS011;58309;45.292;11.820;2023-07-20T10:37:46;6.50;;;2.85;;
67721;SDS011;58309;45.292;11.820;2023-07-20T10:40:29;4.43;;;2.97;;
67721;SDS011;58309;45.292;11.820;2023-07-20T10:43:05;3.75;;;2.83;;
67721;SDS011;58309;45.292;11.820;2023-07-20T10:45:36;5.40;;;3.22;;
67721;SDS011;58309;45.292;11.820;2023-07-20T10:48:25;4.85;;;2.90;;
67721;SDS011;58309;45.292;11.820;2023-07-20T10:51:12;3.33;;;3.03;;
67721;SDS011;58309;45.292;11.820;2023-07-20T10:53:40;4.53;;;3.45;;
67721;SDS011;58309;45.292;11.820;2023-07-20T10:56:06;6.70;;;3.50;;
67721;SDS011;58309;45.292;11.820;2023-07-20T10:58:45;3.83;;;3.40;;
67721;SDS011;58309;45.292;11.820;2023-07-20T11:01:17;4.35;;;3.20;;
67721;SDS011;58309;45.292;11.820;2023-07-20T11:03:43;6.13;;;3.25;;
67721;SDS011;58309;45.292;11.820;2023-07-20T11:11:35;7.40;;;3.53;;
67721;SDS011;58309;45.292;11.820;2023-07-20T11:14:05;3.65;;;3.20;;
67721;SDS011;58309;45.292;11.820;2023-07-20T11:16:42;4.82;;;3.22;;
67721;SDS011;58309;45.292;11.820;2023-07-20T11:24:16;3.95;;;2.83;;
67721;SDS011;58309;45.292;11.820;2023-07-20T11:26:43;5.07;;;2.97;;
67721;SDS011;58309;45.292;11.820;2023-07-20T11:29:09;5.78;;;3.00;;
67721;SDS011;58309;45.292;11.820;2023-07-20T11:31:35;5.05;;;3.13;;
67721;SDS011;58309;45.292;11.820;2023-07-20T11:34:02;4.72;;;2.92;;
67721;SDS011;58309;45.292;11.820;2023-07-20T11:36:27;4.93;;;2.88;;
67721;SDS011;58309;45.292;11.820;2023-07-20T11:38:53;4.25;;;2.20;;
67721;SDS011;58309;45.292;11.820;2023-07-20T11:41:19;3.05;;;2.75;;
67721;SDS011;58309;45.292;11.820;2023-07-20T11:43:45;3.63;;;2.70;;
67721;SDS011;58309;45.292;11.820;2023-07-20T11:46:10;3.00;;;2.55;;
67721;SDS011;58309;45.292;11.820;2023-07-20T11:48:36;3.90;;;2.60;;
67721;SDS011;58309;45.292;11.820;2023-07-20T11:51:01;3.78;;;2.60;;
67721;SDS011;58309;45.292;11.820;2023-07-20T11:53:27;4.78;;;2.75;;
67721;SDS011;58309;45.292;11.820;2023-07-20T11:55:53;4.72;;;2.72;;
67721;SDS011;58309;45.292;11.820;2023-07-20T11:58:19;5.57;;;3.00;;
67721;SDS011;58309;45.292;11.820;2023-07-20T12:00:46;3.00;;;2.70;;
67721;SDS011;58309;45.292;11.820;2023-07-20T12:03:12;3.05;;;2.60;;
67721;SDS011;58309;45.292;11.820;2023-07-20T12:05:38;4.07;;;2.78;;
67721;SDS011;58309;45.292;11.820;2023-07-20T12:08:04;4.50;;;2.60;;
67721;SDS011;58309;45.292;11.820;2023-07-20T12:10:30;3.78;;;3.00;;
67721;SDS011;58309;45.292;11.820;2023-07-20T12:13:00;3.60;;;2.83;;
67721;SDS011;58309;45.292;11.820;2023-07-20T12:15:28;3.10;;;2.70;;
67721;SDS011;58309;45.292;11.820;2023-07-20T12:18:00;4.90;;;2.78;;
67721;SDS011;58309;45.292;11.820;2023-07-20T12:20:30;5.43;;;3.17;;
67721;SDS011;58309;45.292;11.820;2023-07-20T12:28:10;4.88;;;2.70;;
67721;SDS011;58309;45.292;11.820;2023-07-20T12:30:37;2.72;;;2.50;;
67721;SDS011;58309;45.292;11.820;2023-07-20T12:33:03;3.80;;;2.97;;
67721;SDS011;58309;45.292;11.820;2023-07-20T12:35:30;3.15;;;2.78;;
67721;SDS011;58309;45.292;11.820;2023-07-20T12:37:56;5.32;;;3.28;;
67721;SDS011;58309;45.292;11.820;2023-07-20T12:40:21;4.45;;;2.60;;
67721;SDS011;58309;45.292;11.820;2023-07-20T12:42:47;4.55;;;2.83;;
67721;SDS011;58309;45.292;11.820;2023-07-20T12:45:12;5.22;;;2.97;;
67721;SDS011;58309;45.292;11.820;2023-07-20T12:47:38;4.47;;;2.80;;
67721;SDS011;58309;45.292;11.820;2023-07-20T12:50:04;7.57;;;3.10;;
67721;SDS011;58309;45.292;11.820;2023-07-20T12:52:31;3.78;;;2.80;;
67721;SDS011;58309;45.292;11.820;2023-07-20T12:54:57;3.88;;;2.92;;
67721;SDS011;58309;45.292;11.820;2023-07-20T12:57:23;5.90;;;2.72;;
67721;SDS011;58309;45.292;11.820;2023-07-20T12:59:48;4.55;;;2.75;;
67721;SDS011;58309;45.292;11.820;2023-07-20T13:02:14;4.93;;;2.97;;
67721;SDS011;58309;45.292;11.820;2023-07-20T13:04:39;3.42;;;3.05;;
67721;SDS011;58309;45.292;11.820;2023-07-20T13:07:05;5.57;;;3.20;;
67721;SDS011;58309;45.292;11.820;2023-07-20T13:09:33;5.30;;;2.80;;
67721;SDS011;58309;45.292;11.820;2023-07-20T13:11:58;4.22;;;2.97;;
67721;SDS011;58309;45.292;11.820;2023-07-20T13:14:26;4.43;;;2.92;;
67721;SDS011;58309;45.292;11.820;2023-07-20T13:16:51;4.80;;;2.80;;
67721;SDS011;58309;45.292;11.820;2023-07-20T13:19:17;3.67;;;2.80;;
67721;SDS011;58309;45.292;11.820;2023-07-20T13:21:42;3.05;;;2.75;;
67721;SDS011;58309;45.292;11.820;2023-07-20T13:24:08;4.15;;;2.80;;
67721;SDS011;58309;45.292;11.820;2023-07-20T13:26:33;4.50;;;2.95;;
67721;SDS011;58309;45.292;11.820;2023-07-20T13:28:59;3.78;;;2.92;;
67721;SDS011;58309;45.292;11.820;2023-07-20T13:31:25;5.75;;;2.78;;
67721;SDS011;58309;45.292;11.820;2023-07-20T13:33:50;4.85;;;2.90;;
67721;SDS011;58309;45.292;11.820;2023-07-20T13:36:15;4.78;;;3.00;;
67721;SDS011;58309;45.292;11.820;2023-07-20T13:38:41;3.67;;;2.60;;
67721;SDS011;58309;45.292;11.820;2023-07-20T13:41:06;7.03;;;2.90;;
67721;SDS011;58309;45.292;11.820;2023-07-20T13:43:32;3.22;;;2.92;;
67721;SDS011;58309;45.292;11.820;2023-07-20T13:45:57;3.67;;;2.78;;
67721;SDS011;58309;45.292;11.820;2023-07-20T13:48:23;8.73;;;3.20;;
67721;SDS011;58309;45.292;11.820;2023-07-20T13:50:48;3.70;;;3.05;;
67721;SDS011;58309;45.292;11.820;2023-07-20T13:53:14;3.25;;;2.75;;
67721;SDS011;58309;45.292;11.820;2023-07-20T13:55:41;4.60;;;3.10;;
67721;SDS011;58309;45.292;11.820;2023-07-20T13:58:06;3.85;;;3.00;;
67721;SDS011;58309;45.292;11.820;2023-07-20T14:00:32;5.15;;;2.90;;
67721;SDS011;58309;45.292;11.820;2023-07-20T14:02:58;6.53;;;3.13;;
67721;SDS011;58309;45.292;11.820;2023-07-20T14:05:24;4.47;;;2.80;;
67721;SDS011;58309;45.292;11.820;2023-07-20T14:07:50;4.00;;;2.83;;
67721;SDS011;58309;45.292;11.820;2023-07-20T14:10:16;4.18;;;3.17;;
67721;SDS011;58309;45.292;11.820;2023-07-20T14:12:41;3.38;;;2.92;;
67721;SDS011;58309;45.292;11.820;2023-07-20T14:15:07;4.90;;;2.80;;
67721;SDS011;58309;45.292;11.820;2023-07-20T14:17:34;7.30;;;3.00;;
67721;SDS011;58309;45.292;11.820;2023-07-20T14:20:00;4.57;;;2.92;;
67721;SDS011;58309;45.292;11.820;2023-07-20T14:22:25;3.47;;;2.70;;
67721;SDS011;58309;45.292;11.820;2023-07-20T14:24:51;3.85;;;3.05;;
67721;SDS011;58309;45.292;11.820;2023-07-20T14:27:16;4.10;;;3.03;;
67721;SDS011;58309;45.292;11.820;2023-07-20T14:29:42;5.85;;;2.95;;
67721;SDS011;58309;45.292;11.820;2023-07-20T14:32:07;3.60;;;2.95;;
67721;SDS011;58309;45.292;11.820;2023-07-20T14:34:33;3.10;;;2.60;;
67721;SDS011;58309;45.292;11.820;2023-07-20T14:36:59;3.40;;;2.75;;
67721;SDS011;58309;45.292;11.820;2023-07-20T14:39:25;4.63;;;3.00;;
67721;SDS011;58309;45.292;11.820;2023-07-20T14:41:50;3.10;;;2.80;;
67721;SDS011;58309;45.292;11.820;2023-07-20T14:44:16;8.38;;;3.05;;
67721;SDS011;58309;45.292;11.820;2023-07-20T14:46:42;3.75;;;2.90;;
67721;SDS011;58309;45.292;11.820;2023-07-20T14:49:07;7.18;;;3.40;;
67721;SDS011;58309;45.292;11.820;2023-07-20T14:51:33;5.38;;;3.17;;
67721;SDS011;58309;45.292;11.820;2023-07-20T14:54:01;6.93;;;3.00;;